Time;durP1;ratioP1;P1;durP2;ratioP2;P2;SDS_P1;SDS_P2;PMS_P1;PMS_P2;Temp;Humidity;BMP_temperature;BMP_pressure;BME280_temperature;BME280_humidity;BME280_pressure;Samples;Min_cycle;Max_cycle;Signal;HPM_P1;HPM_P2
2022/04/04 07:43:35;;;;;;;28.90;13.38;;;;;;;2.04;65.09;99479.03;5029238;28;20522;-78
2022/04/04 07:46:03;;;;;;;22.42;11.23;;;;;;;1.94;65.78;99465.06;5053913;28;20045;-78
2022/04/04 07:48:32;;;;;;;19.42;10.50;;;;;;;2.14;65.63;99461.84;5053805;28;20052;-78
2022/04/04 07:51:00;;;;;;;22.42;11.10;;;;;;;2.15;66.15;99454.72;5053758;28;20045;-78
2022/04/04 07:53:27;;;;;;;24.88;11.48;;;;;;;2.40;65.45;99459.38;5053832;28;20153;-78
2022/04/04 07:55:55;;;;;;;23.33;11.90;;;;;;;2.36;65.04;99458.56;5053617;28;20049;-78
2022/04/04 07:58:23;;;;;;;32.45;15.18;;;;;;;2.49;65.83;99456.44;5053404;28;20045;-78
2022/04/04 08:00:52;;;;;;;25.80;12.25;;;;;;;2.39;65.44;99444.28;5053607;28;20041;-78
2022/04/04 08:03:21;;;;;;;35.97;16.25;;;;;;;2.20;65.76;99450.13;5053597;28;20051;-78
2022/04/04 08:05:49;;;;;;;28.67;13.25;;;;;;;2.37;65.69;99447.00;5053462;28;20044;-78
2022/04/04 08:08:17;;;;;;;28.13;14.55;;;;;;;2.48;65.43;99444.03;5053420;28;20044;-78
2022/04/04 08:10:44;;;;;;;29.90;15.13;;;;;;;2.55;65.70;99460.72;5053533;28;20052;-78
2022/04/04 08:13:12;;;;;;;49.45;20.48;;;;;;;2.48;66.47;99438.69;5053200;28;20052;-78
2022/04/04 08:15:40;;;;;;;47.65;19.65;;;;;;;2.44;66.63;99439.69;5053310;28;20041;-78
2022/04/04 08:18:09;;;;;;;31.35;14.55;;;;;;;2.85;65.85;99431.34;5053406;28;20048;-77
2022/04/04 08:20:36;;;;;;;30.05;14.32;;;;;;;2.63;65.24;99442.69;5053267;28;20491;-77
2022/04/04 08:23:04;;;;;;;43.53;22.48;;;;;;;2.55;66.70;99440.25;5053113;28;20044;-78
2022/04/04 08:25:32;;;;;;;38.67;19.77;;;;;;;2.47;66.69;99442.28;5052836;28;20052;-78
2022/04/04 08:27:59;;;;;;;51.58;27.13;;;;;;;2.68;67.29;99429.22;5053306;28;20049;-78
2022/04/04 08:30:29;;;;;;;33.45;16.77;;;;;;;2.78;66.50;99441.34;5053122;28;20049;-78
2022/04/04 08:32:57;;;;;;;28.67;17.17;;;;;;;2.82;67.42;99436.78;5053018;28;20095;-78
2022/04/04 08:35:26;;;;;;;27.23;14.70;;;;;;;2.71;66.44;99438.00;5053020;28;20045;-78
2022/04/04 08:37:54;;;;;;;27.48;13.70;;;;;;;2.73;66.26;99432.63;5052966;28;20045;-78
2022/04/04 08:40:22;;;;;;;24.52;14.20;;;;;;;2.92;66.45;99432.03;5052802;28;20414;-78
2022/04/04 08:42:49;;;;;;;55.55;26.27;;;;;;;2.72;66.85;99430.88;5052516;28;20418;-77
2022/04/04 08:45:17;;;;;;;30.80;16.45;;;;;;;2.55;67.03;99437.56;5053083;28;20045;-78
2022/04/04 08:47:45;;;;;;;29.27;15.55;;;;;;;2.49;67.65;99431.56;5052909;28;20103;-77
2022/04/04 08:50:13;;;;;;;27.00;14.35;;;;;;;2.58;68.17;99431.28;5057019;28;20051;-78
2022/04/04 08:52:44;;;;;;;30.05;14.82;;;;;;;2.66;67.95;99426.59;5057187;28;20041;-77
2022/04/04 08:55:13;;;;;;;31.98;15.57;;;;;;;2.45;67.94;99430.78;5056893;28;20052;-78
2022/04/04 08:57:41;;;;;;;30.88;15.95;;;;;;;2.66;68.44;99431.06;5056861;28;20512;-78
2022/04/04 09:00:10;;;;;;;31.38;16.05;;;;;;;2.55;68.49;99420.72;5056986;28;20051;-78
2022/04/04 09:02:38;;;;;;;29.05;16.52;;;;;;;2.61;68.43;99413.38;5056904;28;20048;-78
2022/04/04 09:05:07;;;;;;;28.52;16.00;;;;;;;2.69;68.46;99420.31;5056884;28;20043;-78
2022/04/04 09:07:34;;;;;;;28.33;15.88;;;;;;;3.02;66.81;99417.47;5056773;28;20049;-78
2022/04/04 09:10:04;;;;;;;31.00;17.20;;;;;;;2.95;67.00;99406.16;5056595;28;20055;-78
2022/04/04 09:12:31;;;;;;;27.75;16.38;;;;;;;3.11;67.77;99410.97;5056713;28;20502;-77
2022/04/04 09:15:00;;;;;;;30.80;16.88;;;;;;;3.14;68.12;99405.53;5055457;28;20041;-78
2022/04/04 09:17:29;;;;;;;35.65;18.90;;;;;;;3.16;67.89;99388.56;5055123;28;20512;-78
2022/04/04 09:19:57;;;;;;;45.42;22.55;;;;;;;3.36;67.76;99383.47;5055478;28;20049;-77
2022/04/04 09:22:25;;;;;;;32.22;17.02;;;;;;;3.17;67.36;99387.63;5053189;28;20048;-77
2022/04/04 09:24:55;;;;;;;39.00;19.33;;;;;;;3.12;68.37;99389.59;5055227;28;20048;-77
2022/04/04 09:27:26;;;;;;;29.83;16.13;;;;;;;3.47;67.93;99373.31;5057973;28;20403;-77
2022/04/04 09:29:56;;;;;;;36.15;19.75;;;;;;;3.41;67.22;99384.19;5056258;28;20040;-77
2022/04/04 09:32:25;;;;;;;30.27;17.65;;;;;;;3.32;68.06;99377.38;5056236;28;20480;-77
2022/04/04 09:35:08;;;;;;;29.15;17.00;;;;;;;3.26;68.24;99380.25;5056224;28;20124;-77
2022/04/04 09:37:37;;;;;;;32.30;18.38;;;;;;;3.27;68.23;99372.19;5056678;28;20048;-78
2022/04/04 09:40:08;;;;;;;36.45;18.42;;;;;;;3.22;67.96;99368.78;5055715;28;20041;-77
2022/04/04 09:42:38;;;;;;;27.85;17.88;;;;;;;3.18;68.13;99364.47;5048907;28;20488;-78
2022/04/04 09:45:08;;;;;;;29.35;18.25;;;;;;;3.51;67.67;99376.75;5036826;28;20041;-77
2022/04/04 09:47:53;;;;;;;30.08;17.65;;;;;;;3.37;69.05;99374.56;5056243;28;20059;-77
2022/04/04 09:50:32;;;;;;;32.78;18.17;;;;;;;3.49;68.82;99366.09;5057005;28;20044;-77
2022/04/04 09:53:00;;;;;;;32.83;18.42;;;;;;;3.20;68.25;99362.63;5055501;28;20495;-78
2022/04/04 09:55:29;;;;;;;30.95;17.33;;;;;;;3.31;69.54;99356.94;5055788;28;20044;-77
2022/04/04 09:57:59;;;;;;;31.40;19.02;;;;;;;3.44;69.53;99358.25;5055852;28;20045;-78
2022/04/04 10:00:26;;;;;;;30.80;17.65;;;;;;;3.31;68.55;99364.94;5054301;28;20045;-77
2022/04/04 10:02:57;;;;;;;36.63;18.52;;;;;;;3.22;69.50;99358.09;5055455;28;20037;-78
2022/04/04 10:05:26;;;;;;;30.58;17.45;;;;;;;3.19;70.24;99360.88;5055717;28;20045;-77
2022/04/04 10:07:56;;;;;;;31.05;17.58;;;;;;;3.16;70.74;99355.66;5054676;28;20057;-78
2022/04/04 10:10:27;;;;;;;26.30;16.80;;;;;;;3.15;70.72;99360.13;5054915;28;20064;-78
2022/04/04 10:12:55;;;;;;;29.33;17.45;;;;;;;3.10;72.39;99364.75;5056474;28;20056;-77
2022/04/04 10:15:25;;;;;;;32.28;18.40;;;;;;;2.93;72.21;99364.41;5055144;28;20048;-77
2022/04/04 10:17:55;;;;;;;33.38;18.80;;;;;;;3.11;72.53;99363.84;5055429;28;20044;-77
2022/04/04 10:20:22;;;;;;;30.05;17.35;;;;;;;2.99;78.31;99390.91;5054164;28;20120;-77
2022/04/04 10:22:54;;;;;;;32.92;19.10;;;;;;;2.72;83.05;99382.88;5054880;28;20518;-77
2022/04/04 10:25:24;;;;;;;37.42;22.23;;;;;;;2.43;88.63;99373.97;5054921;28;20040;-78
2022/04/04 10:27:53;;;;;;;36.67;20.75;;;;;;;2.35;90.10;99381.34;5051117;28;20060;-78
2022/04/04 10:30:34;;;;;;;37.55;21.23;;;;;;;2.22;92.22;99379.00;5051805;28;20047;-78
2022/04/04 10:33:03;;;;;;;34.80;21.00;;;;;;;2.22;93.36;99365.69;5050816;28;20502;-78
2022/04/04 10:35:32;;;;;;;36.33;21.00;;;;;;;1.96;95.87;99359.34;5051274;28;20107;-78
2022/04/04 10:38:03;;;;;;;39.15;22.25;;;;;;;1.97;95.94;99371.75;5042968;28;20546;-78
2022/04/04 10:40:33;;;;;;;36.28;22.08;;;;;;;2.10;94.62;99366.06;5040338;28;20454;-78
2022/04/04 10:43:11;;;;;;;41.92;24.05;;;;;;;1.88;94.37;99364.03;5039995;28;20079;-78
2022/04/04 10:45:57;;;;;;;38.78;22.52;;;;;;;2.15;93.77;99356.13;5042153;28;20125;-78
2022/04/04 10:48:32;;;;;;;41.65;24.88;;;;;;;2.08;93.47;99351.91;5042391;28;20510;-78
2022/04/04 10:51:10;;;;;;;51.22;27.42;;;;;;;1.97;94.26;99362.88;5047241;28;20407;-78
2022/04/04 10:53:43;;;;;;;43.90;25.75;;;;;;;2.18;92.63;99334.72;5052058;28;20111;-77
2022/04/04 10:56:13;;;;;;;54.25;28.60;;;;;;;2.37;91.88;99334.19;5052085;28;20059;-78
2022/04/04 10:58:41;;;;;;;49.30;25.95;;;;;;;2.44;90.98;99341.06;5050817;28;20049;-77
2022/04/04 11:01:15;;;;;;;46.20;25.17;;;;;;;2.38;90.68;99342.09;5050878;28;20134;-78
2022/04/04 11:03:56;;;;;;;37.58;23.88;;;;;;;2.58;91.18;99337.97;5051387;28;20581;-77
2022/04/04 11:09:26;;;;;;;39.75;24.05;;;;;;;2.52;89.70;99333.69;5052319;28;20048;-78
2022/04/04 11:11:55;;;;;;;41.00;25.17;;;;;;;2.73;87.52;99336.59;5050154;28;20131;-79
2022/04/04 11:14:42;;;;;;;39.05;24.38;;;;;;;2.94;85.39;99312.81;5032219;28;20037;-78
2022/04/04 11:17:23;;;;;;;50.35;27.23;;;;;;;2.93;85.75;99313.72;5031126;28;20569;-77
2022/04/04 11:19:53;;;;;;;39.75;23.38;;;;;;;3.22;84.74;99312.72;5030988;28;20052;-79
2022/04/04 11:22:22;;;;;;;35.58;22.65;;;;;;;3.52;83.04;99309.06;5031153;28;20120;-78
2022/04/04 11:24:51;;;;;;;36.03;22.70;;;;;;;3.49;83.80;99296.69;5031016;28;20107;-78
2022/04/04 11:27:19;;;;;;;39.00;22.75;;;;;;;3.32;82.61;99298.16;5031171;28;20156;-78
2022/04/04 11:29:47;;;;;;;38.10;23.90;;;;;;;3.28;82.44;99295.63;5030692;28;20052;-78
2022/04/04 11:32:16;;;;;;;41.45;24.85;;;;;;;3.59;83.71;99292.75;5030238;28;20064;-78
2022/04/04 11:34:46;;;;;;;35.40;23.33;;;;;;;3.66;81.38;99288.06;5030162;28;20053;-79
2022/04/04 11:37:19;;;;;;;39.60;23.17;;;;;;;3.44;80.80;99278.13;5030686;28;20060;-78
2022/04/04 11:39:48;;;;;;;32.55;21.10;;;;;;;3.76;80.44;99292.13;5030819;28;20124;-78
2022/04/04 11:42:16;;;;;;;36.10;22.00;;;;;;;3.62;79.11;99276.59;5030098;28;20056;-78
2022/04/04 11:44:47;;;;;;;36.08;22.35;;;;;;;3.92;80.03;99272.88;5031605;28;20411;-78
2022/04/04 11:47:17;;;;;;;34.38;20.95;;;;;;;3.94;78.96;99272.78;5030511;28;20045;-78
2022/04/04 11:49:47;;;;;;;31.92;20.13;;;;;;;4.05;79.63;99274.13;5030706;28;20041;-75
2022/04/04 11:52:19;;;;;;;32.47;20.20;;;;;;;4.04;78.72;99269.72;5030240;28;20053;-78
2022/04/04 11:54:49;;;;;;;30.15;20.38;;;;;;;4.38;77.83;99269.31;5031639;28;20049;-78
2022/04/04 11:57:16;;;;;;;32.22;19.70;;;;;;;4.17;76.95;99262.09;5029962;28;20056;-78
2022/04/04 11:59:45;;;;;;;34.38;20.42;;;;;;;4.25;76.30;99267.13;5030415;28;20060;-78
2022/04/04 12:02:14;;;;;;;38.08;22.65;;;;;;;4.08;76.53;99266.91;5030174;28;20511;-77
2022/04/04 12:04:43;;;;;;;32.20;20.25;;;;;;;3.91;76.96;99265.78;5030314;28;20063;-77
2022/04/04 12:07:12;;;;;;;31.88;19.50;;;;;;;3.59;77.06;99258.03;5029910;28;20072;-77
2022/04/04 12:09:40;;;;;;;32.60;19.13;;;;;;;3.82;77.47;99255.41;5030066;28;20427;-77
2022/04/04 12:12:10;;;;;;;30.95;18.33;;;;;;;3.68;78.01;99264.81;5030065;28;20103;-78
2022/04/04 12:14:38;;;;;;;37.78;22.63;;;;;;;3.60;79.52;99253.56;5029826;28;20148;-79
2022/04/04 12:17:07;;;;;;;35.47;19.67;;;;;;;3.86;77.46;99249.91;5029711;28;20052;-78
2022/04/04 12:19:42;;;;;;;30.83;19.20;;;;;;;3.58;77.91;99255.41;5029058;28;20049;-77
2022/04/04 12:24:56;;;;;;;28.63;18.17;;;;;;;3.63;78.90;99253.44;5069798;28;20052;-78
2022/04/04 12:27:24;;;;;;;33.45;19.05;;;;;;;3.62;78.52;99238.34;5071463;28;20044;-78
2022/04/04 12:29:59;;;;;;;31.15;18.85;;;;;;;3.74;78.70;99232.53;5069657;28;20040;-78
2022/04/04 12:32:27;;;;;;;30.83;18.85;;;;;;;3.61;79.28;99236.59;5069033;28;20044;-75
2022/04/04 12:34:59;;;;;;;29.80;19.30;;;;;;;3.65;77.95;99227.56;5069180;28;20569;-77
2022/04/04 12:37:34;;;;;;;31.67;19.92;;;;;;;3.83;78.06;99231.31;5069195;28;20044;-78
2022/04/04 12:40:17;;;;;;;34.58;21.40;;;;;;;4.34;76.33;99218.63;5054171;28;20380;-78
2022/04/04 12:42:45;;;;;;;31.63;19.45;;;;;;;3.98;76.10;99227.19;5049391;28;20048;-78
2022/04/04 12:45:13;;;;;;;33.33;20.25;;;;;;;3.96;77.71;99238.84;5049732;28;20037;-78
2022/04/04 12:47:57;;;;;;;35.45;21.70;;;;;;;3.66;77.78;99226.63;5051503;28;20041;-78
2022/04/04 12:50:26;;;;;;;31.88;19.10;;;;;;;3.91;76.66;99223.03;5052852;28;20055;-77
2022/04/04 12:52:58;;;;;;;35.05;21.85;;;;;;;4.13;76.47;99198.09;5051746;28;20044;-78
2022/04/04 12:55:27;;;;;;;41.15;24.08;;;;;;;4.17;75.64;99202.41;5047038;28;20048;-77
2022/04/04 12:57:55;;;;;;;49.58;27.83;;;;;;;4.08;76.17;99198.31;5039252;28;20033;-78
2022/04/04 13:00:26;;;;;;;42.08;24.60;;;;;;;4.13;75.50;99192.75;5051046;28;20045;-78
2022/04/04 13:02:54;;;;;;;45.33;23.77;;;;;;;4.13;75.44;99185.63;5051025;28;20068;-78
2022/04/04 13:05:25;;;;;;;31.15;19.15;;;;;;;4.17;74.41;99181.00;5051425;28;20049;-78
2022/04/04 13:07:53;;;;;;;42.50;23.80;;;;;;;4.18;75.01;99186.31;5051369;28;20068;-77
2022/04/04 13:10:24;;;;;;;36.75;21.33;;;;;;;4.20;73.38;99171.06;5051074;28;20053;-78
2022/04/04 13:13:08;;;;;;;50.10;27.38;;;;;;;4.44;74.24;99175.47;5051071;28;20045;-78
2022/04/04 13:15:37;;;;;;;35.13;19.92;;;;;;;4.34;74.07;99178.53;5052636;28;20029;-77
2022/04/04 13:18:05;;;;;;;32.83;19.02;;;;;;;4.20;73.84;99179.09;5051576;28;20052;-77
2022/04/04 13:20:32;;;;;;;32.70;20.02;;;;;;;4.37;74.06;99174.00;5049947;28;20103;-76
2022/04/04 13:23:00;;;;;;;34.78;20.42;;;;;;;4.30;73.30;99165.34;5048623;28;20041;-77
2022/04/04 13:25:28;;;;;;;31.75;18.88;;;;;;;4.28;72.59;99165.38;5048348;28;20553;-77
2022/04/04 13:27:57;;;;;;;37.28;21.23;;;;;;;4.39;73.39;99148.06;5048841;28;20435;-77
2022/04/04 13:30:25;;;;;;;34.17;20.40;;;;;;;4.43;73.41;99157.69;5048333;28;20063;-77
2022/04/04 13:32:52;;;;;;;35.58;21.33;;;;;;;4.57;72.65;99155.28;5048910;28;20052;-78
2022/04/04 13:35:20;;;;;;;34.38;20.63;;;;;;;4.49;72.26;99154.75;5050898;28;20053;-77
2022/04/04 13:37:48;;;;;;;32.17;19.73;;;;;;;4.35;72.46;99134.81;5052579;28;20175;-78
2022/04/04 13:40:15;;;;;;;37.83;22.48;;;;;;;4.29;72.72;99137.75;5052560;28;20044;-77
2022/04/04 13:42:43;;;;;;;30.30;18.13;;;;;;;4.42;72.47;99146.09;5044358;28;20085;-77
2022/04/04 13:56:14;;;;;;;29.52;17.33;;;;;;;4.32;72.65;99121.59;5050503;28;20082;-78
2022/04/04 13:58:42;;;;;;;28.40;16.42;;;;;;;4.15;72.59;99129.41;5049647;28;20048;-78
2022/04/04 14:01:10;;;;;;;28.58;17.67;;;;;;;4.28;71.96;99122.63;5051930;28;20441;-77
2022/04/04 14:03:38;;;;;;;52.15;25.70;;;;;;;4.40;72.26;99107.88;5051469;28;20045;-77
2022/04/04 14:06:06;;;;;;;30.55;17.27;;;;;;;4.48;70.72;99096.84;5052043;28;20045;-77
2022/04/04 14:08:35;;;;;;;29.75;17.67;;;;;;;4.31;71.49;99101.13;5051985;28;20124;-78
2022/04/04 14:11:07;;;;;;;31.35;17.80;;;;;;;4.54;71.62;99093.06;5051368;28;20115;-77
2022/04/04 14:13:38;;;;;;;32.00;18.40;;;;;;;4.49;70.82;99074.50;5064115;28;20404;-77
2022/04/04 14:16:06;;;;;;;43.47;21.83;;;;;;;4.50;70.46;99076.25;5051409;28;20482;-78
2022/04/04 14:18:34;;;;;;;27.23;16.55;;;;;;;4.21;70.66;99083.72;5051966;28;20133;-77
2022/04/04 14:21:04;;;;;;;33.15;19.75;;;;;;;4.43;71.51;99069.44;5051580;28;20053;-77
2022/04/04 14:23:32;;;;;;;31.58;18.23;;;;;;;4.30;71.55;99080.66;5040920;28;20044;-77
2022/04/04 14:26:00;;;;;;;24.40;16.02;;;;;;;4.30;71.26;99071.75;5050630;28;20045;-76
2022/04/04 14:28:28;;;;;;;39.80;21.48;;;;;;;4.33;71.46;99058.25;5049794;28;20037;-77
2022/04/04 14:30:58;;;;;;;29.20;16.40;;;;;;;4.39;71.88;99055.31;5047805;28;20041;-77
2022/04/04 14:33:26;;;;;;;43.00;24.23;;;;;;;4.32;70.52;99049.38;5051418;28;20511;-77
2022/04/04 14:35:54;;;;;;;38.75;21.88;;;;;;;4.46;71.81;99038.06;5051287;28;20498;-76
2022/04/04 14:38:22;;;;;;;25.90;15.57;;;;;;;4.37;69.60;99045.66;5050101;28;20432;-77
2022/04/04 14:40:49;;;;;;;28.35;15.80;;;;;;;4.54;69.48;99031.53;5051548;28;20051;-78
2022/04/04 14:43:17;;;;;;;26.17;15.25;;;;;;;4.55;69.49;99044.81;5051288;28;20109;-77
2022/04/04 14:45:45;;;;;;;28.63;17.15;;;;;;;4.29;69.67;99027.25;5051129;28;20107;-78
2022/04/04 14:48:14;;;;;;;24.50;14.38;;;;;;;4.33;70.02;99012.81;5050937;28;20049;-77
2022/04/04 14:50:41;;;;;;;28.45;16.42;;;;;;;4.34;71.64;99015.44;5050901;28;20056;-77
2022/04/04 14:53:09;;;;;;;29.77;16.60;;;;;;;4.31;71.53;99018.25;5050929;28;20098;-77
2022/04/04 14:55:37;;;;;;;25.02;15.32;;;;;;;4.24;71.07;99008.72;5051217;28;20057;-77
2022/04/04 14:58:05;;;;;;;24.75;14.10;;;;;;;4.18;70.61;98999.19;5050974;28;20060;-77
2022/04/04 15:00:34;;;;;;;23.88;14.40;;;;;;;4.27;71.14;98997.91;5050968;28;20083;-76
2022/04/04 15:03:01;;;;;;;36.13;19.77;;;;;;;4.32;71.65;98995.91;5050653;28;20275;-77
2022/04/04 15:05:30;;;;;;;31.85;17.88;;;;;;;4.30;71.71;98995.13;5050716;28;20049;-77
2022/04/04 15:07:58;;;;;;;34.63;19.20;;;;;;;4.30;70.91;98992.44;5050912;28;20045;-77
2022/04/04 15:10:25;;;;;;;29.67;17.17;;;;;;;4.35;71.71;98989.53;5050756;28;20452;-77
2022/04/04 15:12:53;;;;;;;28.27;16.38;;;;;;;4.19;70.58;98984.00;5050723;28;20511;-77
2022/04/04 15:15:22;;;;;;;31.73;18.25;;;;;;;4.20;70.29;98983.06;5050359;28;20413;-77
2022/04/04 15:17:50;;;;;;;31.73;18.10;;;;;;;4.18;70.65;98974.25;5050715;28;20503;-77
2022/04/04 15:20:17;;;;;;;29.30;17.27;;;;;;;4.09;70.46;98971.97;5050733;28;20685;-77
2022/04/04 15:22:47;;;;;;;28.13;16.05;;;;;;;4.16;70.83;98960.97;5050368;28;20048;-77
2022/04/04 15:25:14;;;;;;;63.80;36.70;;;;;;;4.07;70.39;98969.38;5050622;28;20079;-77
2022/04/04 15:27:42;;;;;;;48.17;26.73;;;;;;;4.04;71.39;98959.69;5049955;28;20078;-77
2022/04/04 15:30:11;;;;;;;43.08;27.08;;;;;;;4.05;71.42;98960.53;5050529;28;20075;-77
2022/04/04 15:32:38;;;;;;;31.38;17.80;;;;;;;3.98;71.50;98956.41;5050041;28;20487;-77
2022/04/04 15:35:08;;;;;;;31.13;18.20;;;;;;;3.92;72.65;98957.56;5050336;28;20053;-77
2022/04/04 15:37:35;;;;;;;28.48;17.77;;;;;;;3.95;73.00;98949.41;5049644;28;20487;-77
2022/04/04 15:40:05;;;;;;;30.23;17.58;;;;;;;3.86;72.37;98944.44;5050459;28;20415;-77
2022/04/04 15:42:34;;;;;;;30.38;16.23;;;;;;;3.84;71.91;98940.97;5043303;28;20050;-76
2022/04/04 15:45:02;;;;;;;32.30;20.02;;;;;;;3.79;72.82;98938.50;5030220;28;20056;-77
2022/04/04 15:47:30;;;;;;;32.58;19.08;;;;;;;3.79;72.55;98927.81;5030024;28;20053;-77
2022/04/04 15:49:57;;;;;;;52.50;30.88;;;;;;;3.75;72.96;98923.56;5029846;28;20384;-76
2022/04/04 15:52:25;;;;;;;34.83;20.65;;;;;;;3.72;72.33;98929.03;5029903;28;20076;-76
2022/04/04 15:54:52;;;;;;;41.03;22.02;;;;;;;3.74;72.81;98922.66;5030268;28;20111;-77
2022/04/04 15:57:22;;;;;;;31.95;17.88;;;;;;;3.82;72.62;98924.13;5030002;28;20041;-77
2022/04/04 15:59:49;;;;;;;33.13;18.30;;;;;;;3.72;73.66;98921.88;5029389;28;20053;-77
2022/04/04 16:02:17;;;;;;;40.22;20.75;;;;;;;3.77;72.79;98914.53;5029750;28;20050;-78
2022/04/04 16:04:44;;;;;;;58.88;26.50;;;;;;;3.67;72.70;98913.19;5029961;28;20049;-78
2022/04/04 16:07:12;;;;;;;34.35;19.60;;;;;;;3.65;73.30;98915.06;5029367;28;20060;-78
2022/04/04 16:09:40;;;;;;;40.65;22.25;;;;;;;3.60;73.07;98906.38;5029871;28;20120;-78
2022/04/04 16:12:08;;;;;;;46.63;23.23;;;;;;;3.69;73.53;98894.44;5029909;28;20538;-75
2022/04/04 16:14:37;;;;;;;42.92;21.48;;;;;;;3.50;73.27;98883.69;5029466;28;20056;-77
2022/04/04 16:17:04;;;;;;;44.88;22.50;;;;;;;3.65;73.79;98882.13;5029883;28;20041;-78
2022/04/04 16:19:32;;;;;;;35.03;19.25;;;;;;;3.60;73.86;98885.88;5029419;28;20057;-79
2022/04/04 16:22:02;;;;;;;37.55;19.75;;;;;;;3.62;73.39;98877.81;5031301;28;20049;-79
2022/04/04 16:24:30;;;;;;;37.03;20.35;;;;;;;3.64;73.50;98865.25;5029640;28;20096;-78
2022/04/04 16:26:57;;;;;;;47.47;24.02;;;;;;;3.55;73.14;98874.53;5029294;28;20052;-78
2022/04/04 16:29:25;;;;;;;37.55;20.40;;;;;;;3.48;73.47;98865.94;5029740;28;20500;-78
2022/04/04 16:31:54;;;;;;;51.03;23.83;;;;;;;3.54;73.06;98862.09;5029601;28;20450;-77
2022/04/04 16:34:21;;;;;;;54.85;27.55;;;;;;;3.50;74.32;98859.66;5029223;28;20045;-79
2022/04/04 16:36:51;;;;;;;42.65;24.52;;;;;;;3.50;73.32;98851.66;5029777;28;20526;-79
2022/04/04 16:39:19;;;;;;;48.33;24.35;;;;;;;3.54;73.37;98840.75;5029101;28;20064;-79
2022/04/04 16:41:46;;;;;;;38.95;19.60;;;;;;;3.52;73.25;98839.09;5029398;28;20049;-79
2022/04/04 16:44:15;;;;;;;49.55;26.98;;;;;;;3.51;73.61;98832.00;5028981;28;20103;-79
2022/04/04 16:46:42;;;;;;;44.78;23.50;;;;;;;3.43;72.80;98838.53;5029577;28;20050;-79
2022/04/04 16:49:11;;;;;;;43.95;20.73;;;;;;;3.40;72.68;98825.31;5029084;28;20499;-79
2022/04/04 16:51:39;;;;;;;44.70;22.42;;;;;;;3.36;73.52;98830.88;5028822;28;20514;-79
2022/04/04 16:54:07;;;;;;;44.00;21.83;;;;;;;3.42;73.90;98819.91;5029230;28;20111;-79
2022/04/04 16:56:35;;;;;;;46.35;21.25;;;;;;;3.39;73.64;98814.72;5041972;28;20152;-79
2022/04/04 16:59:03;;;;;;;55.63;25.98;;;;;;;3.31;73.09;98802.56;5045377;28;20041;-78
2022/04/04 17:01:31;;;;;;;57.17;27.83;;;;;;;3.34;73.05;98806.91;5047836;28;20048;-78
2022/04/04 17:03:58;;;;;;;77.65;30.20;;;;;;;3.31;73.20;98801.69;5047206;28;20049;-78
2022/04/04 17:06:28;;;;;;;67.72;26.73;;;;;;;3.17;72.55;98797.81;5047835;28;20045;-77
2022/04/04 17:08:55;;;;;;;124.88;46.10;;;;;;;3.29;73.54;98796.44;5047531;28;20049;-77
2022/04/04 17:11:23;;;;;;;43.28;19.88;;;;;;;3.31;72.62;98793.69;5052022;28;20053;-77
2022/04/04 17:13:50;;;;;;;27.23;14.45;;;;;;;3.38;72.38;98792.47;5051243;28;20044;-77
2022/04/04 17:16:18;;;;;;;34.20;21.33;;;;;;;3.28;72.80;98783.16;5051630;28;20098;-77
2022/04/04 17:18:45;;;;;;;27.45;16.65;;;;;;;3.24;74.11;98789.56;5051499;28;20099;-78
2022/04/04 17:21:13;;;;;;;25.05;14.95;;;;;;;3.26;73.73;98787.69;5051781;28;20053;-77
2022/04/04 17:23:43;;;;;;;45.08;20.52;;;;;;;3.10;74.65;98783.00;5051532;28;20044;-77
2022/04/04 17:26:11;;;;;;;44.05;23.20;;;;;;;3.17;75.17;98776.47;5052360;28;20056;-78
2022/04/04 17:28:39;;;;;;;54.75;31.35;;;;;;;3.14;75.21;98781.94;5051275;28;20511;-78
2022/04/04 17:31:09;;;;;;;29.02;14.98;;;;;;;3.17;75.02;98778.25;5051380;28;20103;-78
2022/04/04 17:33:40;;;;;;;33.78;18.77;;;;;;;3.04;75.44;98775.25;5050880;28;20044;-77
2022/04/04 17:36:07;;;;;;;47.67;27.40;;;;;;;2.99;76.01;98766.56;5050967;28;20044;-78
2022/04/04 17:38:35;;;;;;;50.08;27.08;;;;;;;3.08;76.11;98776.00;5052107;28;20582;-76
2022/04/04 17:41:04;;;;;;;51.13;28.45;;;;;;;2.98;76.45;98778.19;5051637;28;20431;-78
2022/04/04 17:43:31;;;;;;;30.33;16.77;;;;;;;2.93;76.33;98767.72;5051595;28;20065;-78
2022/04/04 17:45:59;;;;;;;53.58;27.05;;;;;;;2.89;77.44;98777.63;5052580;28;20346;-79
2022/04/04 17:48:27;;;;;;;113.80;39.83;;;;;;;3.08;76.43;98774.22;5051773;28;20124;-78
2022/04/04 17:50:55;;;;;;;91.05;35.63;;;;;;;3.00;77.25;98762.97;5051871;28;20052;-78
2022/04/04 17:53:23;;;;;;;112.15;46.20;;;;;;;3.05;76.46;98771.66;5052350;28;20059;-79
2022/04/04 17:55:50;;;;;;;54.35;23.10;;;;;;;2.86;76.59;98753.75;5052365;28;20053;-78
2022/04/04 17:58:19;;;;;;;55.20;22.75;;;;;;;2.89;76.79;98755.44;5052114;28;20120;-79
2022/04/04 18:00:47;;;;;;;48.28;20.67;;;;;;;2.95;76.04;98755.19;5052094;28;20610;-79
2022/04/04 18:03:15;;;;;;;45.63;18.25;;;;;;;3.02;76.14;98758.44;5051386;28;20053;-78
2022/04/04 18:05:42;;;;;;;50.58;21.20;;;;;;;3.02;76.46;98755.75;5051913;28;20107;-78
2022/04/04 18:08:10;;;;;;;47.60;21.35;;;;;;;3.03;75.95;98754.84;5051866;28;20407;-78
2022/04/04 18:10:38;;;;;;;67.82;28.65;;;;;;;2.98;76.16;98748.84;5052039;28;20110;-79
2022/04/04 18:13:06;;;;;;;42.20;20.58;;;;;;;3.04;75.69;98744.13;5051260;28;20127;-78
2022/04/04 18:15:35;;;;;;;93.70;43.35;;;;;;;2.90;76.48;98747.38;5050840;28;20102;-79
2022/04/04 18:18:03;;;;;;;59.20;25.85;;;;;;;3.02;75.67;98745.09;5051860;28;20123;-79
2022/04/04 18:20:30;;;;;;;46.13;22.95;;;;;;;3.02;74.92;98745.09;5051653;28;20128;-78
2022/04/04 18:22:58;;;;;;;56.85;28.90;;;;;;;3.03;75.03;98742.38;5050962;28;20048;-77
2022/04/04 18:25:26;;;;;;;44.78;22.92;;;;;;;2.87;75.72;98742.16;5050528;28;20449;-77
2022/04/04 18:27:53;;;;;;;36.88;18.88;;;;;;;2.88;75.84;98743.91;5051000;28;20068;-78
2022/04/04 18:30:21;;;;;;;48.05;21.85;;;;;;;2.93;74.96;98735.72;5050592;28;20037;-77
2022/04/04 18:32:50;;;;;;;48.67;20.33;;;;;;;2.92;75.11;98733.97;5050268;28;20094;-77
2022/04/04 18:35:17;;;;;;;37.17;18.30;;;;;;;2.96;74.79;98724.91;5050305;28;20044;-78
2022/04/04 18:37:45;;;;;;;53.55;22.65;;;;;;;2.94;74.57;98721.44;5047080;28;20037;-77
2022/04/04 18:40:13;;;;;;;42.72;21.23;;;;;;;2.95;74.79;98723.16;5050001;28;20245;-78
2022/04/04 18:42:41;;;;;;;52.92;24.20;;;;;;;2.90;74.05;98720.69;5047804;28;20053;-78
2022/04/04 18:45:10;;;;;;;58.25;25.73;;;;;;;2.94;74.31;98715.22;5049755;28;20052;-77
2022/04/04 18:47:38;;;;;;;82.40;37.63;;;;;;;2.93;73.76;98726.81;5049711;28;20381;-78
2022/04/04 18:50:08;;;;;;;82.20;35.80;;;;;;;2.82;74.32;98714.81;5046872;28;20057;-78
2022/04/04 18:52:36;;;;;;;65.07;31.27;;;;;;;2.78;74.55;98710.56;5050250;28;20494;-77
2022/04/04 18:55:04;;;;;;;42.03;23.98;;;;;;;2.89;74.06;98713.63;5049936;28;20049;-78
2022/04/04 18:57:32;;;;;;;99.10;43.15;;;;;;;2.79;73.83;98711.41;5049634;28;20468;-78
2022/04/04 19:00:00;;;;;;;48.00;23.45;;;;;;;2.76;73.59;98696.41;5049258;28;20053;-78
2022/04/04 19:02:27;;;;;;;47.13;21.80;;;;;;;3.03;73.98;98694.34;5049599;28;20032;-78
2022/04/04 19:04:55;;;;;;;49.75;23.77;;;;;;;2.83;74.00;98697.88;5049801;28;20454;-78
2022/04/04 19:07:24;;;;;;;137.07;56.47;;;;;;;2.92;73.67;98687.75;5049606;28;20044;-77
2022/04/04 19:09:51;;;;;;;93.65;46.70;;;;;;;3.02;73.81;98691.75;5049408;28;20163;-77
2022/04/04 19:12:19;;;;;;;80.63;30.77;;;;;;;2.96;73.51;98678.66;5049435;28;20053;-77
2022/04/04 19:14:46;;;;;;;57.80;21.88;;;;;;;2.87;73.76;98678.16;5046388;28;20037;-77
2022/04/04 19:17:15;;;;;;;47.92;19.58;;;;;;;2.97;73.24;98667.06;5050122;28;20420;-77
2022/04/04 19:19:43;;;;;;;40.30;15.43;;;;;;;2.89;73.80;98670.94;5049687;28;20041;-77
2022/04/04 19:22:11;;;;;;;64.25;22.40;;;;;;;2.87;72.95;98671.97;5050657;28;20411;-77
2022/04/04 19:24:40;;;;;;;68.20;22.17;;;;;;;2.90;73.08;98662.00;5050763;28;20044;-77
2022/04/04 19:27:07;;;;;;;52.42;21.45;;;;;;;2.80;73.10;98660.69;5049590;28;20044;-77
2022/04/04 19:29:35;;;;;;;48.22;22.85;;;;;;;2.85;73.79;98648.00;5049997;28;20045;-77
2022/04/04 19:32:03;;;;;;;45.65;20.67;;;;;;;2.81;73.29;98645.53;5050218;28;20573;-77